sensor_id;sensor_type;location;lat;lon;timestamp;P1;P2;P0
72307;PMS5003;60257;42.638;23.376;2023-11-21T00:02:22;10.67;10.00;7.33
72307;PMS5003;60257;42.638;23.376;2023-11-21T00:04:48;14.67;13.00;7.00
72307;PMS5003;60257;42.638;23.376;2023-11-21T00:07:14;10.67;10.67;6.67
72307;PMS5003;60257;42.638;23.376;2023-11-21T00:09:40;9.67;8.67;6.67
72307;PMS5003;60257;42.638;23.376;2023-11-21T00:12:06;13.00;11.33;7.00
72307;PMS5003;60257;42.638;23.376;2023-11-21T00:14:35;10.33;10.33;6.00
72307;PMS5003;60257;42.638;23.376;2023-11-21T00:17:01;7.67;7.67;6.33
72307;PMS5003;60257;42.638;23.376;2023-11-21T00:19:27;11.67;10.67;6.00
72307;PMS5003;60257;42.638;23.376;2023-11-21T00:21:56;14.00;9.33;6.00
72307;PMS5003;60257;42.638;23.376;2023-11-21T00:24:23;13.67;11.67;6.00
72307;PMS5003;60257;42.638;23.376;2023-11-21T00:26:49;13.00;12.00;7.00
72307;PMS5003;60257;42.638;23.376;2023-11-21T00:29:15;9.00;9.00;6.00
72307;PMS5003;60257;42.638;23.376;2023-11-21T00:31:42;14.00;12.00;7.00
72307;PMS5003;60257;42.638;23.376;2023-11-21T00:34:09;13.33;12.00;7.67
72307;PMS5003;60257;42.638;23.376;2023-11-21T00:36:34;8.67;8.67;6.67
72307;PMS5003;60257;42.638;23.376;2023-11-21T00:39:00;14.33;13.00;7.33
72307;PMS5003;60257;42.638;23.376;2023-11-21T00:41:28;17.00;13.67;7.00
72307;PMS5003;60257;42.638;23.376;2023-11-21T00:43:53;13.67;12.67;8.00
72307;PMS5003;60257;42.638;23.376;2023-11-21T00:46:20;18.67;18.67;12.00
72307;PMS5003;60257;42.638;23.376;2023-11-21T00:48:45;16.33;16.33;9.67
72307;PMS5003;60257;42.638;23.376;2023-11-21T00:51:11;19.00;16.33;10.33
72307;PMS5003;60257;42.638;23.376;2023-11-21T00:53:36;22.50;22.50;16.25
72307;PMS5003;60257;42.638;23.376;2023-11-21T00:56:01;21.00;19.75;11.50
72307;PMS5003;60257;42.638;23.376;2023-11-21T00:58:27;25.00;20.75;8.50
72307;PMS5003;60257;42.638;23.376;2023-11-21T01:00:53;26.25;23.50;15.00
72307;PMS5003;60257;42.638;23.376;2023-11-21T01:03:19;23.00;22.75;15.00
72307;PMS5003;60257;42.638;23.376;2023-11-21T01:05:45;16.25;16.25;10.50
72307;PMS5003;60257;42.638;23.376;2023-11-21T01:08:11;18.67;18.67;12.00
72307;PMS5003;60257;42.638;23.376;2023-11-21T01:10:36;18.25;18.25;9.75
72307;PMS5003;60257;42.638;23.376;2023-11-21T01:13:02;19.75;19.75;11.75
72307;PMS5003;60257;42.638;23.376;2023-11-21T01:15:30;21.75;20.00;12.75
72307;PMS5003;60257;42.638;23.376;2023-11-21T01:17:55;22.75;18.25;10.50
72307;PMS5003;60257;42.638;23.376;2023-11-21T01:20:21;16.00;13.25;11.25
72307;PMS5003;60257;42.638;23.376;2023-11-21T01:22:46;22.25;22.25;14.50
72307;PMS5003;60257;42.638;23.376;2023-11-21T01:25:14;14.75;14.75;11.50
72307;PMS5003;60257;42.638;23.376;2023-11-21T01:27:41;16.50;15.25;7.75
72307;PMS5003;60257;42.638;23.376;2023-11-21T01:30:07;17.50;17.50;11.25
72307;PMS5003;60257;42.638;23.376;2023-11-21T01:32:34;18.75;18.75;11.00
72307;PMS5003;60257;42.638;23.376;2023-11-21T01:34:59;15.33;14.33;7.33
72307;PMS5003;60257;42.638;23.376;2023-11-21T01:37:25;21.67;18.00;11.33
72307;PMS5003;60257;42.638;23.376;2023-11-21T01:39:53;12.00;12.00;8.33
72307;PMS5003;60257;42.638;23.376;2023-11-21T01:42:21;14.00;14.00;7.00
72307;PMS5003;60257;42.638;23.376;2023-11-21T01:44:46;15.33;14.00;8.00
72307;PMS5003;60257;42.638;23.376;2023-11-21T01:47:12;15.00;12.00;7.00
72307;PMS5003;60257;42.638;23.376;2023-11-21T01:49:39;13.00;13.00;10.00
72307;PMS5003;60257;42.638;23.376;2023-11-21T01:52:04;13.00;11.67;7.00
72307;PMS5003;60257;42.638;23.376;2023-11-21T01:54:31;16.67;15.67;11.00
72307;PMS5003;60257;42.638;23.376;2023-11-21T01:56:58;7.33;7.00;1.33
72307;PMS5003;60257;42.638;23.376;2023-11-21T01:59:29;12.00;10.00;8.00
72307;PMS5003;60257;42.638;23.376;2023-11-21T02:02:00;12.33;11.33;7.00
72307;PMS5003;60257;42.638;23.376;2023-11-21T02:04:26;11.00;11.00;7.00
72307;PMS5003;60257;42.638;23.376;2023-11-21T02:06:52;12.67;11.33;6.67
72307;PMS5003;60257;42.638;23.376;2023-11-21T02:09:22;11.00;11.00;6.00
72307;PMS5003;60257;42.638;23.376;2023-11-21T02:11:49;15.00;11.67;7.00
72307;PMS5003;60257;42.638;23.376;2023-11-21T02:14:14;10.00;7.67;3.00
72307;PMS5003;60257;42.638;23.376;2023-11-21T02:16:40;13.00;11.00;6.00
72307;PMS5003;60257;42.638;23.376;2023-11-21T02:19:06;12.33;11.00;7.67
72307;PMS5003;60257;42.638;23.376;2023-11-21T02:21:34;27.00;27.00;15.25
72307;PMS5003;60257;42.638;23.376;2023-11-21T02:24:01;15.25;15.25;11.00
72307;PMS5003;60257;42.638;23.376;2023-11-21T02:26:26;33.00;27.25;15.50
72307;PMS5003;60257;42.638;23.376;2023-11-21T02:28:52;33.00;29.75;19.75
72307;PMS5003;60257;42.638;23.376;2023-11-21T02:31:18;34.00;27.75;16.50
72307;PMS5003;60257;42.638;23.376;2023-11-21T02:33:44;29.75;28.25;17.00
72307;PMS5003;60257;42.638;23.376;2023-11-21T02:36:09;35.25;33.25;21.00
72307;PMS5003;60257;42.638;23.376;2023-11-21T02:38:35;28.75;25.00;15.50
72307;PMS5003;60257;42.638;23.376;2023-11-21T02:41:00;24.50;23.25;14.75
72307;PMS5003;60257;42.638;23.376;2023-11-21T02:43:25;32.25;26.25;17.50
72307;PMS5003;60257;42.638;23.376;2023-11-21T02:45:51;32.50;31.00;20.25
72307;PMS5003;60257;42.638;23.376;2023-11-21T02:48:16;40.25;36.00;21.25
72307;PMS5003;60257;42.638;23.376;2023-11-21T02:50:42;44.00;37.00;21.00
72307;PMS5003;60257;42.638;23.376;2023-11-21T02:53:08;29.75;26.75;16.50
72307;PMS5003;60257;42.638;23.376;2023-11-21T02:55:35;28.75;27.25;19.25
72307;PMS5003;60257;42.638;23.376;2023-11-21T02:58:01;24.25;22.75;14.25
72307;PMS5003;60257;42.638;23.376;2023-11-21T03:00:28;27.75;27.75;19.50
72307;PMS5003;60257;42.638;23.376;2023-11-21T03:02:55;32.75;31.25;17.50
72307;PMS5003;60257;42.638;23.376;2023-11-21T03:05:21;37.50;33.75;19.00
72307;PMS5003;60257;42.638;23.376;2023-11-21T03:07:47;40.25;37.00;20.00
72307;PMS5003;60257;42.638;23.376;2023-11-21T03:10:12;31.75;31.50;20.00
72307;PMS5003;60257;42.638;23.376;2023-11-21T03:12:38;32.25;25.25;16.50
72307;PMS5003;60257;42.638;23.376;2023-11-21T03:15:05;24.25;23.25;11.00
72307;PMS5003;60257;42.638;23.376;2023-11-21T03:17:31;34.00;29.75;16.25
72307;PMS5003;60257;42.638;23.376;2023-11-21T03:19:58;32.00;27.50;19.00
72307;PMS5003;60257;42.638;23.376;2023-11-21T03:22:24;30.25;28.25;20.00
72307;PMS5003;60257;42.638;23.376;2023-11-21T03:24:50;28.00;24.75;17.00
72307;PMS5003;60257;42.638;23.376;2023-11-21T03:27:15;30.25;29.50;21.50
72307;PMS5003;60257;42.638;23.376;2023-11-21T03:29:41;40.25;34.25;20.00
72307;PMS5003;60257;42.638;23.376;2023-11-21T03:32:06;30.25;28.75;15.50
72307;PMS5003;60257;42.638;23.376;2023-11-21T03:34:32;33.75;32.50;19.25
72307;PMS5003;60257;42.638;23.376;2023-11-21T03:36:57;25.00;24.25;15.00
72307;PMS5003;60257;42.638;23.376;2023-11-21T03:39:23;33.75;30.50;17.50
72307;PMS5003;60257;42.638;23.376;2023-11-21T03:41:50;20.25;19.00;14.25
72307;PMS5003;60257;42.638;23.376;2023-11-21T03:44:17;19.50;19.00;11.00
72307;PMS5003;60257;42.638;23.376;2023-11-21T03:46:43;16.75;15.25;9.00
72307;PMS5003;60257;42.638;23.376;2023-11-21T03:49:09;15.67;10.00;5.33
72307;PMS5003;60257;42.638;23.376;2023-11-21T03:51:35;30.00;24.25;16.25
72307;PMS5003;60257;42.638;23.376;2023-11-21T03:54:01;42.75;38.00;22.25
72307;PMS5003;60257;42.638;23.376;2023-11-21T03:56:27;55.25;45.50;29.50
72307;PMS5003;60257;42.638;23.376;2023-11-21T03:58:53;58.00;46.00;29.00
72307;PMS5003;60257;42.638;23.376;2023-11-21T04:01:19;58.75;46.75;30.25
72307;PMS5003;60257;42.638;23.376;2023-11-21T04:03:48;60.25;48.00;29.00
72307;PMS5003;60257;42.638;23.376;2023-11-21T04:06:14;65.00;51.00;30.25
72307;PMS5003;60257;42.638;23.376;2023-11-21T04:08:39;61.75;50.75;30.75
72307;PMS5003;60257;42.638;23.376;2023-11-21T04:11:05;56.00;46.25;29.25
72307;PMS5003;60257;42.638;23.376;2023-11-21T04:13:30;59.00;47.50;30.75
72307;PMS5003;60257;42.638;23.376;2023-11-21T04:15:56;45.50;41.25;23.25
72307;PMS5003;60257;42.638;23.376;2023-11-21T04:18:21;63.00;51.75;30.00
72307;PMS5003;60257;42.638;23.376;2023-11-21T04:20:50;62.75;49.50;31.50
72307;PMS5003;60257;42.638;23.376;2023-11-21T04:23:15;59.25;48.50;29.25
72307;PMS5003;60257;42.638;23.376;2023-11-21T04:25:41;52.50;45.00;28.75
72307;PMS5003;60257;42.638;23.376;2023-11-21T04:28:06;48.50;42.75;27.00
72307;PMS5003;60257;42.638;23.376;2023-11-21T04:30:32;43.25;39.75;25.00
72307;PMS5003;60257;42.638;23.376;2023-11-21T04:32:58;46.50;38.50;25.25
72307;PMS5003;60257;42.638;23.376;2023-11-21T04:35:23;38.00;37.00;23.25
72307;PMS5003;60257;42.638;23.376;2023-11-21T04:37:49;34.75;31.50;19.00
72307;PMS5003;60257;42.638;23.376;2023-11-21T04:40:16;37.00;28.75;17.50
72307;PMS5003;60257;42.638;23.376;2023-11-21T04:42:41;31.25;29.75;22.50
72307;PMS5003;60257;42.638;23.376;2023-11-21T04:45:07;35.50;34.75;21.50
72307;PMS5003;60257;42.638;23.376;2023-11-21T04:47:34;43.00;36.75;20.25
72307;PMS5003;60257;42.638;23.376;2023-11-21T04:50:00;44.25;38.75;23.75
72307;PMS5003;60257;42.638;23.376;2023-11-21T04:52:25;35.25;35.00;23.00
72307;PMS5003;60257;42.638;23.376;2023-11-21T04:54:51;44.00;38.25;23.50
72307;PMS5003;60257;42.638;23.376;2023-11-21T04:57:19;36.00;33.75;22.00
72307;PMS5003;60257;42.638;23.376;2023-11-21T04:59:44;41.75;35.75;21.00
72307;PMS5003;60257;42.638;23.376;2023-11-21T05:02:10;39.00;35.50;20.50
72307;PMS5003;60257;42.638;23.376;2023-11-21T05:04:35;40.25;36.50;23.00
72307;PMS5003;60257;42.638;23.376;2023-11-21T05:07:00;38.75;37.00;23.00
72307;PMS5003;60257;42.638;23.376;2023-11-21T05:09:26;39.00;34.25;22.50
72307;PMS5003;60257;42.638;23.376;2023-11-21T05:11:53;26.00;24.25;14.50
72307;PMS5003;60257;42.638;23.376;2023-11-21T05:14:19;28.25;27.75;16.50
72307;PMS5003;60257;42.638;23.376;2023-11-21T05:16:45;24.75;24.25;16.25
72307;PMS5003;60257;42.638;23.376;2023-11-21T05:19:11;24.50;21.50;16.00
72307;PMS5003;60257;42.638;23.376;2023-11-21T05:21:38;52.25;42.00;25.00
72307;PMS5003;60257;42.638;23.376;2023-11-21T05:24:03;29.00;26.50;17.50
72307;PMS5003;60257;42.638;23.376;2023-11-21T05:26:30;14.75;14.75;10.50
72307;PMS5003;60257;42.638;23.376;2023-11-21T05:28:56;19.75;16.00;10.75
72307;PMS5003;60257;42.638;23.376;2023-11-21T05:31:21;17.50;17.50;9.00
72307;PMS5003;60257;42.638;23.376;2023-11-21T05:33:47;20.75;20.00;13.25
72307;PMS5003;60257;42.638;23.376;2023-11-21T05:36:12;17.50;16.00;10.00
72307;PMS5003;60257;42.638;23.376;2023-11-21T05:38:38;19.00;16.75;11.25
72307;PMS5003;60257;42.638;23.376;2023-11-21T05:41:03;23.75;23.00;12.75
72307;PMS5003;60257;42.638;23.376;2023-11-21T05:43:32;22.25;20.25;14.00
72307;PMS5003;60257;42.638;23.376;2023-11-21T05:46:00;19.00;17.25;11.00
72307;PMS5003;60257;42.638;23.376;2023-11-21T05:48:26;21.75;21.50;12.00
72307;PMS5003;60257;42.638;23.376;2023-11-21T05:50:51;31.25;29.25;21.00
72307;PMS5003;60257;42.638;23.376;2023-11-21T05:53:17;29.50;27.75;19.00
72307;PMS5003;60257;42.638;23.376;2023-11-21T05:55:43;19.25;18.75;11.75
72307;PMS5003;60257;42.638;23.376;2023-11-21T05:58:08;19.50;18.50;12.50
72307;PMS5003;60257;42.638;23.376;2023-11-21T06:00:34;20.75;20.75;14.00
72307;PMS5003;60257;42.638;23.376;2023-11-21T06:02:59;18.50;17.25;9.00
72307;PMS5003;60257;42.638;23.376;2023-11-21T06:05:25;25.00;18.75;14.25
72307;PMS5003;60257;42.638;23.376;2023-11-21T06:07:55;21.00;19.00;11.75
72307;PMS5003;60257;42.638;23.376;2023-11-21T06:10:24;21.50;21.50;13.25
72307;PMS5003;60257;42.638;23.376;2023-11-21T06:12:50;25.25;21.50;13.50
72307;PMS5003;60257;42.638;23.376;2023-11-21T06:15:16;21.00;19.50;14.25
72307;PMS5003;60257;42.638;23.376;2023-11-21T06:17:44;46.00;40.25;23.00
72307;PMS5003;60257;42.638;23.376;2023-11-21T06:20:14;33.00;29.75;17.50
72307;PMS5003;60257;42.638;23.376;2023-11-21T06:22:43;22.00;21.25;12.75
72307;PMS5003;60257;42.638;23.376;2023-11-21T06:25:11;23.75;23.75;15.00
72307;PMS5003;60257;42.638;23.376;2023-11-21T06:27:42;20.25;20.00;11.50
72307;PMS5003;60257;42.638;23.376;2023-11-21T06:30:09;20.00;20.00;12.00
72307;PMS5003;60257;42.638;23.376;2023-11-21T06:32:37;27.00;27.00;17.00
72307;PMS5003;60257;42.638;23.376;2023-11-21T06:35:03;23.00;21.75;15.25
72307;PMS5003;60257;42.638;23.376;2023-11-21T06:37:30;20.50;19.00;10.00
72307;PMS5003;60257;42.638;23.376;2023-11-21T06:39:57;43.50;40.00;25.75
72307;PMS5003;60257;42.638;23.376;2023-11-21T06:42:23;58.75;49.25;29.50
72307;PMS5003;60257;42.638;23.376;2023-11-21T06:44:49;63.00;51.00;32.50
72307;PMS5003;60257;42.638;23.376;2023-11-21T06:47:17;64.00;52.75;32.75
72307;PMS5003;60257;42.638;23.376;2023-11-21T06:49:42;62.75;50.00;31.25
72307;PMS5003;60257;42.638;23.376;2023-11-21T06:52:08;62.75;52.00;35.00
72307;PMS5003;60257;42.638;23.376;2023-11-21T06:54:34;65.75;54.00;33.25
72307;PMS5003;60257;42.638;23.376;2023-11-21T06:57:00;64.00;52.00;32.25
72307;PMS5003;60257;42.638;23.376;2023-11-21T06:59:28;64.00;53.00;33.50
72307;PMS5003;60257;42.638;23.376;2023-11-21T07:01:55;67.50;53.25;33.25
72307;PMS5003;60257;42.638;23.376;2023-11-21T07:04:20;54.25;44.00;27.00
72307;PMS5003;60257;42.638;23.376;2023-11-21T07:06:46;56.50;46.00;29.50
72307;PMS5003;60257;42.638;23.376;2023-11-21T07:09:11;61.75;50.75;33.00
72307;PMS5003;60257;42.638;23.376;2023-11-21T07:11:37;71.25;56.50;38.00
72307;PMS5003;60257;42.638;23.376;2023-11-21T07:14:03;58.50;48.00;29.50
72307;PMS5003;60257;42.638;23.376;2023-11-21T07:16:35;60.50;49.50;31.25
72307;PMS5003;60257;42.638;23.376;2023-11-21T07:19:04;58.50;48.25;31.25
72307;PMS5003;60257;42.638;23.376;2023-11-21T07:21:34;59.75;50.25;29.75
72307;PMS5003;60257;42.638;23.376;2023-11-21T07:24:00;68.75;54.50;34.00
72307;PMS5003;60257;42.638;23.376;2023-11-21T07:26:26;70.25;55.00;34.00
72307;PMS5003;60257;42.638;23.376;2023-11-21T07:28:52;59.00;48.00;32.00
72307;PMS5003;60257;42.638;23.376;2023-11-21T07:31:18;59.50;48.00;34.00
72307;PMS5003;60257;42.638;23.376;2023-11-21T07:33:44;64.50;52.50;33.50
72307;PMS5003;60257;42.638;23.376;2023-11-21T07:36:12;63.75;51.75;33.00
72307;PMS5003;60257;42.638;23.376;2023-11-21T07:38:38;53.50;44.25;30.75
72307;PMS5003;60257;42.638;23.376;2023-11-21T07:41:04;61.75;50.25;33.25
72307;PMS5003;60257;42.638;23.376;2023-11-21T07:43:30;63.00;50.00;32.00
72307;PMS5003;60257;42.638;23.376;2023-11-21T07:46:00;67.50;55.25;37.00
72307;PMS5003;60257;42.638;23.376;2023-11-21T07:48:28;65.25;53.75;33.25
72307;PMS5003;60257;42.638;23.376;2023-11-21T07:50:53;57.50;46.50;29.00
72307;PMS5003;60257;42.638;23.376;2023-11-21T07:53:19;40.25;34.00;20.25
72307;PMS5003;60257;42.638;23.376;2023-11-21T07:55:44;54.25;46.25;31.25
72307;PMS5003;60257;42.638;23.376;2023-11-21T07:58:12;53.00;45.50;29.00
72307;PMS5003;60257;42.638;23.376;2023-11-21T08:00:38;61.25;48.50;31.00
72307;PMS5003;60257;42.638;23.376;2023-11-21T08:03:04;59.75;46.75;30.75
72307;PMS5003;60257;42.638;23.376;2023-11-21T08:05:31;49.00;42.25;27.75
72307;PMS5003;60257;42.638;23.376;2023-11-21T08:07:56;51.75;42.75;28.00
72307;PMS5003;60257;42.638;23.376;2023-11-21T08:10:22;59.00;48.75;32.00
72307;PMS5003;60257;42.638;23.376;2023-11-21T08:12:48;53.00;45.75;28.75
72307;PMS5003;60257;42.638;23.376;2023-11-21T08:15:15;62.50;51.50;33.00
72307;PMS5003;60257;42.638;23.376;2023-11-21T08:17:41;64.50;50.75;33.00
72307;PMS5003;60257;42.638;23.376;2023-11-21T08:20:06;56.25;47.00;31.00
72307;PMS5003;60257;42.638;23.376;2023-11-21T08:22:33;57.75;47.50;30.25
72307;PMS5003;60257;42.638;23.376;2023-11-21T08:24:59;45.75;41.00;27.00
72307;PMS5003;60257;42.638;23.376;2023-11-21T08:27:25;47.00;41.00;31.00
72307;PMS5003;60257;42.638;23.376;2023-11-21T08:29:50;59.25;46.75;29.50
72307;PMS5003;60257;42.638;23.376;2023-11-21T08:32:17;57.75;46.00;30.25
72307;PMS5003;60257;42.638;23.376;2023-11-21T08:34:43;57.00;47.00;31.25
72307;PMS5003;60257;42.638;23.376;2023-11-21T08:37:09;55.25;46.00;28.75
72307;PMS5003;60257;42.638;23.376;2023-11-21T08:39:36;54.50;43.00;29.00
72307;PMS5003;60257;42.638;23.376;2023-11-21T08:42:03;52.50;45.25;28.00
72307;PMS5003;60257;42.638;23.376;2023-11-21T08:44:29;44.50;38.00;24.75
72307;PMS5003;60257;42.638;23.376;2023-11-21T08:46:55;53.75;45.00;32.00
72307;PMS5003;60257;42.638;23.376;2023-11-21T08:49:21;58.00;48.75;30.75
72307;PMS5003;60257;42.638;23.376;2023-11-21T08:51:46;67.50;53.50;33.50
72307;PMS5003;60257;42.638;23.376;2023-11-21T08:54:12;54.50;45.75;30.75
72307;PMS5003;60257;42.638;23.376;2023-11-21T08:56:37;53.25;45.00;30.50
72307;PMS5003;60257;42.638;23.376;2023-11-21T08:59:03;59.75;47.25;31.50
72307;PMS5003;60257;42.638;23.376;2023-11-21T09:01:29;54.00;44.75;30.00
72307;PMS5003;60257;42.638;23.376;2023-11-21T09:03:56;54.00;44.50;30.00
72307;PMS5003;60257;42.638;23.376;2023-11-21T09:06:23;55.25;47.50;31.50
72307;PMS5003;60257;42.638;23.376;2023-11-21T09:08:49;48.75;39.75;28.25
72307;PMS5003;60257;42.638;23.376;2023-11-21T09:11:14;45.50;39.00;27.00
72307;PMS5003;60257;42.638;23.376;2023-11-21T09:13:40;48.75;40.75;26.00
72307;PMS5003;60257;42.638;23.376;2023-11-21T09:16:05;53.25;45.00;27.25
72307;PMS5003;60257;42.638;23.376;2023-11-21T09:18:31;72.25;57.00;38.00
72307;PMS5003;60257;42.638;23.376;2023-11-21T09:20:57;78.00;61.25;39.00
72307;PMS5003;60257;42.638;23.376;2023-11-21T09:23:22;68.50;53.25;36.75
72307;PMS5003;60257;42.638;23.376;2023-11-21T09:25:49;72.50;59.00;38.25
72307;PMS5003;60257;42.638;23.376;2023-11-21T09:28:15;74.75;60.25;37.75
72307;PMS5003;60257;42.638;23.376;2023-11-21T09:30:42;76.00;59.50;36.75
72307;PMS5003;60257;42.638;23.376;2023-11-21T09:33:08;69.25;56.00;37.00
72307;PMS5003;60257;42.638;23.376;2023-11-21T09:35:37;72.00;58.75;38.50
72307;PMS5003;60257;42.638;23.376;2023-11-21T09:38:03;71.25;57.25;37.75
72307;PMS5003;60257;42.638;23.376;2023-11-21T09:40:35;76.25;58.25;38.00
72307;PMS5003;60257;42.638;23.376;2023-11-21T09:43:02;77.75;59.75;38.25
72307;PMS5003;60257;42.638;23.376;2023-11-21T09:45:36;69.00;56.50;37.75
72307;PMS5003;60257;42.638;23.376;2023-11-21T09:48:04;74.00;59.00;38.00
72307;PMS5003;60257;42.638;23.376;2023-11-21T09:50:31;68.25;55.00;35.00
72307;PMS5003;60257;42.638;23.376;2023-11-21T09:53:03;68.25;55.00;37.00
72307;PMS5003;60257;42.638;23.376;2023-11-21T09:55:43;70.25;55.00;35.00
72307;PMS5003;60257;42.638;23.376;2023-11-21T09:58:12;69.50;56.00;36.50
72307;PMS5003;60257;42.638;23.376;2023-11-21T10:00:42;61.75;52.00;36.00
72307;PMS5003;60257;42.638;23.376;2023-11-21T10:03:09;65.50;53.50;35.00
72307;PMS5003;60257;42.638;23.376;2023-11-21T10:05:36;55.00;47.25;31.75
72307;PMS5003;60257;42.638;23.376;2023-11-21T10:08:03;61.25;46.75;30.00
72307;PMS5003;60257;42.638;23.376;2023-11-21T10:10:32;58.75;49.25;31.25
72307;PMS5003;60257;42.638;23.376;2023-11-21T10:13:00;54.00;44.75;31.75
72307;PMS5003;60257;42.638;23.376;2023-11-21T10:15:30;54.00;46.25;31.25
72307;PMS5003;60257;42.638;23.376;2023-11-21T10:17:59;55.50;47.00;29.00
72307;PMS5003;60257;42.638;23.376;2023-11-21T10:20:27;57.25;47.25;30.25
72307;PMS5003;60257;42.638;23.376;2023-11-21T10:22:53;55.00;44.75;29.75
72307;PMS5003;60257;42.638;23.376;2023-11-21T10:25:18;53.50;44.25;31.00
72307;PMS5003;60257;42.638;23.376;2023-11-21T10:27:47;47.75;40.25;25.00
72307;PMS5003;60257;42.638;23.376;2023-11-21T10:30:15;46.50;39.75;28.50
72307;PMS5003;60257;42.638;23.376;2023-11-21T10:32:44;53.25;43.75;28.75
72307;PMS5003;60257;42.638;23.376;2023-11-21T10:35:09;51.50;42.25;28.00
72307;PMS5003;60257;42.638;23.376;2023-11-21T10:37:36;51.50;42.00;27.25
72307;PMS5003;60257;42.638;23.376;2023-11-21T10:40:05;53.25;43.25;30.00
72307;PMS5003;60257;42.638;23.376;2023-11-21T10:42:37;47.50;40.50;29.50
72307;PMS5003;60257;42.638;23.376;2023-11-21T10:45:04;45.00;37.75;25.75
72307;PMS5003;60257;42.638;23.376;2023-11-21T10:47:37;52.00;44.00;29.75
72307;PMS5003;60257;42.638;23.376;2023-11-21T10:50:04;57.75;46.50;30.00
72307;PMS5003;60257;42.638;23.376;2023-11-21T10:52:30;51.75;41.75;27.25
72307;PMS5003;60257;42.638;23.376;2023-11-21T10:54:56;51.00;42.50;28.50
72307;PMS5003;60257;42.638;23.376;2023-11-21T10:57:24;54.50;44.50;29.50
72307;PMS5003;60257;42.638;23.376;2023-11-21T10:59:50;51.00;42.75;29.50
72307;PMS5003;60257;42.638;23.376;2023-11-21T11:04:57;51.50;42.75;26.25
72307;PMS5003;60257;42.638;23.376;2023-11-21T11:07:26;49.50;39.00;25.75
72307;PMS5003;60257;42.638;23.376;2023-11-21T11:09:55;50.25;42.00;25.25
72307;PMS5003;60257;42.638;23.376;2023-11-21T11:12:21;52.75;45.50;29.25
72307;PMS5003;60257;42.638;23.376;2023-11-21T11:14:48;55.75;45.25;28.50
72307;PMS5003;60257;42.638;23.376;2023-11-21T11:17:14;50.50;43.00;29.75
72307;PMS5003;60257;42.638;23.376;2023-11-21T11:19:39;53.75;44.25;29.50
72307;PMS5003;60257;42.638;23.376;2023-11-21T11:27:30;56.67;45.67;29.00
72307;PMS5003;60257;42.638;23.376;2023-11-21T11:32:54;56.75;45.75;28.25
72307;PMS5003;60257;42.638;23.376;2023-11-21T11:35:51;57.25;46.25;30.00
72307;PMS5003;60257;42.638;23.376;2023-11-21T11:38:22;51.25;43.75;29.50
72307;PMS5003;60257;42.638;23.376;2023-11-21T11:40:54;52.75;44.25;29.00
72307;PMS5003;60257;42.638;23.376;2023-11-21T11:43:26;41.50;35.50;24.00
72307;PMS5003;60257;42.638;23.376;2023-11-21T11:45:55;42.00;37.00;27.67
72307;PMS5003;60257;42.638;23.376;2023-11-21T11:48:22;52.33;43.00;28.00
72307;PMS5003;60257;42.638;23.376;2023-11-21T11:51:03;54.33;46.00;29.67
72307;PMS5003;60257;42.638;23.376;2023-11-21T11:53:33;51.33;39.67;28.67
72307;PMS5003;60257;42.638;23.376;2023-11-21T11:58:57;55.75;44.75;29.75
72307;PMS5003;60257;42.638;23.376;2023-11-21T12:01:25;54.75;46.25;30.75
72307;PMS5003;60257;42.638;23.376;2023-11-21T12:07:02;46.50;38.00;29.00
72307;PMS5003;60257;42.638;23.376;2023-11-21T12:09:28;50.75;43.00;27.50
72307;PMS5003;60257;42.638;23.376;2023-11-21T12:11:55;56.00;45.75;30.00
72307;PMS5003;60257;42.638;23.376;2023-11-21T12:14:24;53.75;45.25;29.00
72307;PMS5003;60257;42.638;23.376;2023-11-21T12:16:50;52.25;42.00;26.00
72307;PMS5003;60257;42.638;23.376;2023-11-21T12:19:16;45.00;39.25;26.00
72307;PMS5003;60257;42.638;23.376;2023-11-21T12:21:42;53.00;43.25;28.00
72307;PMS5003;60257;42.638;23.376;2023-11-21T12:24:09;56.00;44.75;30.00
72307;PMS5003;60257;42.638;23.376;2023-11-21T12:26:35;55.75;46.50;31.25
72307;PMS5003;60257;42.638;23.376;2023-11-21T12:29:04;57.25;47.50;30.50
72307;PMS5003;60257;42.638;23.376;2023-11-21T12:31:31;57.75;48.75;33.00
72307;PMS5003;60257;42.638;23.376;2023-11-21T12:33:57;59.00;48.50;32.25
72307;PMS5003;60257;42.638;23.376;2023-11-21T12:36:22;62.25;50.50;34.00
72307;PMS5003;60257;42.638;23.376;2023-11-21T12:38:48;60.75;51.00;32.50
72307;PMS5003;60257;42.638;23.376;2023-11-21T12:41:14;62.75;51.50;34.50
72307;PMS5003;60257;42.638;23.376;2023-11-21T12:43:42;64.25;51.75;33.00
72307;PMS5003;60257;42.638;23.376;2023-11-21T12:46:08;64.50;52.00;33.25
72307;PMS5003;60257;42.638;23.376;2023-11-21T12:48:38;67.75;53.75;37.00
72307;PMS5003;60257;42.638;23.376;2023-11-21T12:51:13;64.50;53.25;37.00
72307;PMS5003;60257;42.638;23.376;2023-11-21T12:53:43;67.50;53.25;36.25
72307;PMS5003;60257;42.638;23.376;2023-11-21T12:56:12;69.75;53.50;38.00
72307;PMS5003;60257;42.638;23.376;2023-11-21T12:58:39;66.75;54.00;35.00
72307;PMS5003;60257;42.638;23.376;2023-11-21T13:01:10;66.50;51.50;32.50
72307;PMS5003;60257;42.638;23.376;2023-11-21T13:03:38;77.00;60.50;40.00
72307;PMS5003;60257;42.638;23.376;2023-11-21T13:06:05;70.25;57.00;38.75
72307;PMS5003;60257;42.638;23.376;2023-11-21T13:08:32;72.75;57.25;37.25
72307;PMS5003;60257;42.638;23.376;2023-11-21T13:10:58;71.50;57.00;36.25
72307;PMS5003;60257;42.638;23.376;2023-11-21T13:13:24;72.50;56.50;36.75
72307;PMS5003;60257;42.638;23.376;2023-11-21T13:15:54;77.00;64.00;41.25
72307;PMS5003;60257;42.638;23.376;2023-11-21T13:18:26;73.00;57.25;35.25
72307;PMS5003;60257;42.638;23.376;2023-11-21T13:20:53;74.75;58.50;38.25
72307;PMS5003;60257;42.638;23.376;2023-11-21T13:23:20;71.75;57.25;37.00
72307;PMS5003;60257;42.638;23.376;2023-11-21T13:25:47;75.00;58.50;37.25
72307;PMS5003;60257;42.638;23.376;2023-11-21T13:28:14;73.50;57.75;35.75
72307;PMS5003;60257;42.638;23.376;2023-11-21T13:30:40;67.75;53.25;36.25
72307;PMS5003;60257;42.638;23.376;2023-11-21T13:33:07;71.75;56.25;37.00
72307;PMS5003;60257;42.638;23.376;2023-11-21T13:35:36;71.75;58.25;38.25
72307;PMS5003;60257;42.638;23.376;2023-11-21T13:40:52;71.25;56.75;36.00
72307;PMS5003;60257;42.638;23.376;2023-11-21T13:43:23;74.25;60.75;38.00
72307;PMS5003;60257;42.638;23.376;2023-11-21T13:45:51;71.75;57.25;38.25
72307;PMS5003;60257;42.638;23.376;2023-11-21T13:48:26;73.50;57.25;37.00
72307;PMS5003;60257;42.638;23.376;2023-11-21T13:50:59;66.75;52.75;36.00
72307;PMS5003;60257;42.638;23.376;2023-11-21T13:53:33;72.25;56.75;37.00
72307;PMS5003;60257;42.638;23.376;2023-11-21T13:56:02;73.75;58.25;38.25